Time;durP1;ratioP1;P1;durP2;ratioP2;P2;SDS_P1;SDS_P2;PMS_P1;PMS_P2;Temp;Humidity;BMP_temperature;BMP_pressure;BME280_temperature;BME280_humidity;BME280_pressure;Samples;Min_cycle;Max_cycle;Signal;HPM_P1;HPM_P2
2021/03/07 00:01:47;;;;;;;;;;;-0.30;99.90;;;;;;4998798;28;20382;-88
2021/03/07 00:04:17;;;;;;;;;;;-0.30;99.90;;;;;;4998912;28;20016;-88
2021/03/07 00:06:48;;;;;;;;;;;-0.30;99.90;;;;;;4999921;28;19922;-88
2021/03/07 00:09:17;;;;;;;;;;;-0.30;99.90;;;;;;5013305;28;19909;-88
2021/03/07 00:11:52;;;;;;;;;;;-0.40;99.90;;;;;;5012361;28;19926;-88
2021/03/07 00:14:31;;;;;;;;;;;-0.40;99.90;;;;;;5018140;28;19921;-89
2021/03/07 00:16:59;;;;;;;;;;;-0.40;99.90;;;;;;5014775;28;20293;-87
2021/03/07 00:19:35;;;;;;;;;;;-0.50;99.90;;;;;;5014446;28;20262;-87
2021/03/07 00:22:06;;;;;;;;;;;-0.50;99.90;;;;;;5019713;28;19910;-87
2021/03/07 00:24:43;;;;;;;;;;;-0.50;99.90;;;;;;5036757;28;19909;-88
2021/03/07 00:27:27;;;;;;;;;;;-0.50;99.90;;;;;;5018485;28;19906;-88
2021/03/07 00:30:01;;;;;;;;;;;-0.50;99.90;;;;;;5018913;28;19960;-88
2021/03/07 00:32:31;;;;;;;;;;;-0.50;99.90;;;;;;5017727;28;19920;-87
2021/03/07 00:35:09;;;;;;;;;;;-0.50;99.90;;;;;;5034317;28;20366;-88
2021/03/07 00:37:43;;;;;;;;;;;-0.60;99.90;;;;;;5013749;28;19932;-87
2021/03/07 00:40:24;;;;;;;;;;;-0.60;99.90;;;;;;5017455;28;20043;-88
2021/03/07 00:42:52;;;;;;;;;;;-0.60;99.90;;;;;;5033114;28;19921;-88
2021/03/07 00:45:21;;;;;;;;;;;-0.60;99.90;;;;;;5013077;28;20008;-88
2021/03/07 00:47:50;;;;;;;;;;;-0.70;99.90;;;;;;5014536;28;19913;-88
2021/03/07 00:50:20;;;;;;;;;;;-0.60;99.90;;;;;;5016821;28;20016;-88
2021/03/07 00:52:52;;;;;;;;;;;-0.60;99.90;;;;;;5021263;28;19999;-88
2021/03/07 00:55:27;;;;;;;;;;;-0.60;99.90;;;;;;5021653;28;20311;-88
2021/03/07 00:58:00;;;;;;;;;;;-0.60;99.90;;;;;;5021783;28;19960;-89
2021/03/07 01:00:31;;;;;;;;;;;-0.70;99.90;;;;;;5017326;28;19932;-89
2021/03/07 01:03:05;;;;;;;;;;;-0.70;99.90;;;;;;5017954;28;19979;-89
2021/03/07 01:05:34;;;;;;;;;;;-0.70;99.90;;;;;;5021697;28;19909;-88
2021/03/07 01:08:10;;;;;;;;;;;-0.70;99.90;;;;;;5022018;28;20325;-87
2021/03/07 01:10:44;;;;;;;;;;;-0.80;99.90;;;;;;5021369;28;19924;-88
2021/03/07 01:13:17;;;;;;;;;;;-0.80;99.90;;;;;;5038944;28;19914;-88
2021/03/07 01:15:52;;;;;;;;;;;-0.80;99.90;;;;;;5039620;28;19968;-88
2021/03/07 01:18:27;;;;;;;;;;;-0.80;99.90;;;;;;5020382;28;19912;-87
2021/03/07 01:20:56;;;;;;;;;;;-0.80;99.90;;;;;;5021913;28;19921;-88
2021/03/07 01:23:34;;;;;;;;;;;-0.70;99.90;;;;;;5019442;28;19913;-88
2021/03/07 01:26:03;;;;;;;;;;;-0.70;99.90;;;;;;5021584;28;20381;-88
2021/03/07 01:28:38;;;;;;;;;;;-0.70;99.90;;;;;;5037523;28;20024;-88
2021/03/07 01:31:11;;;;;;;;;;;-0.70;99.90;;;;;;5022161;28;19993;-87
2021/03/07 01:33:45;;;;;;;;;;;-0.70;99.90;;;;;;5038991;28;19913;-87
2021/03/07 01:36:14;;;;;;;;;;;-0.80;99.90;;;;;;5035844;28;20377;-88
2021/03/07 01:39:02;;;;;;;;;;;-0.80;99.90;;;;;;5021761;28;19909;-88
2021/03/07 01:41:34;;;;;;;;;;;-0.80;99.90;;;;;;5021107;28;20392;-88
2021/03/07 01:44:05;;;;;;;;;;;-0.90;99.90;;;;;;5020883;28;19909;-87
2021/03/07 01:46:34;;;;;;;;;;;-0.90;99.90;;;;;;5023335;28;19909;-88
2021/03/07 01:49:05;;;;;;;;;;;-1.00;99.90;;;;;;5017578;28;19910;-88
2021/03/07 01:51:43;;;;;;;;;;;-1.00;99.90;;;;;;5024744;28;19917;-88
2021/03/07 01:54:09;;;;;;;;;;;-1.10;99.90;;;;;;5023224;28;19921;-88
2021/03/07 01:56:39;;;;;;;;;;;-1.20;99.90;;;;;;5039008;28;19909;-88
2021/03/07 01:59:06;;;;;;;;;;;-1.20;99.90;;;;;;5014198;28;19909;-88
2021/03/07 02:01:53;;;;;;;;;;;-1.30;99.90;;;;;;5037785;28;19957;-88
2021/03/07 02:04:29;;;;;;;;;;;-1.30;99.90;;;;;;5038093;28;20011;-88
2021/03/07 02:07:05;;;;;;;;;;;-1.40;99.90;;;;;;5020650;28;19921;-89
2021/03/07 02:09:40;;;;;;;;;;;-1.50;99.90;;;;;;5021091;28;19913;-87
2021/03/07 02:12:11;;;;;;;;;;;-1.50;99.90;;;;;;5021249;28;19917;-88
2021/03/07 02:14:50;;;;;;;;;;;-1.60;99.90;;;;;;5020844;28;19916;-88
2021/03/07 02:17:20;;;;;;;;;;;-1.70;99.90;;;;;;5017733;28;19910;-87
2021/03/07 02:19:51;;;;;;;;;;;-1.80;99.90;;;;;;5013946;28;19913;-88
2021/03/07 02:22:37;;;;;;;;;;;-1.80;99.90;;;;;;5020918;28;19913;-87
2021/03/07 02:25:09;;;;;;;;;;;-1.90;99.90;;;;;;5019833;28;19909;-88
2021/03/07 02:27:43;;;;;;;;;;;-2.00;99.90;;;;;;5020670;28;20389;-88
2021/03/07 02:30:13;;;;;;;;;;;-2.00;99.90;;;;;;5020997;28;19972;-88
2021/03/07 02:33:00;;;;;;;;;;;-2.00;99.90;;;;;;5037384;28;19914;-88
2021/03/07 02:35:34;;;;;;;;;;;-2.10;99.90;;;;;;5020128;28;20422;-88
2021/03/07 02:38:11;;;;;;;;;;;-2.10;99.90;;;;;;5015739;28;19952;-88
2021/03/07 02:40:44;;;;;;;;;;;-2.20;99.90;;;;;;5019866;28;19972;-87
2021/03/07 02:43:15;;;;;;;;;;;-2.20;99.90;;;;;;5037141;28;20007;-88
2021/03/07 02:45:45;;;;;;;;;;;-2.20;99.90;;;;;;5020647;28;19916;-88
2021/03/07 02:48:18;;;;;;;;;;;-2.30;99.90;;;;;;5019577;28;19909;-87
2021/03/07 02:50:56;;;;;;;;;;;-2.30;99.90;;;;;;5016693;28;19948;-89
2021/03/07 02:53:45;;;;;;;;;;;-2.40;99.90;;;;;;5019758;28;19917;-88
2021/03/07 02:56:19;;;;;;;;;;;-2.40;99.90;;;;;;5019421;28;19917;-88
2021/03/07 02:58:59;;;;;;;;;;;-2.50;99.90;;;;;;5019544;28;20055;-88
2021/03/07 03:01:32;;;;;;;;;;;-2.50;99.90;;;;;;5016587;28;19909;-88
2021/03/07 03:04:04;;;;;;;;;;;-2.60;99.90;;;;;;5037094;28;19913;-87
2021/03/07 03:06:33;;;;;;;;;;;-2.60;99.90;;;;;;5012544;28;19917;-88
2021/03/07 03:09:10;;;;;;;;;;;-2.60;99.90;;;;;;5020347;28;19981;-88
2021/03/07 03:11:39;;;;;;;;;;;-2.70;99.90;;;;;;5054956;28;19940;-85
2021/03/07 03:14:14;;;;;;;;;;;-2.70;99.90;;;;;;5038427;28;19909;-87
2021/03/07 03:17:03;;;;;;;;;;;-2.70;99.90;;;;;;5035114;28;19909;-87
2021/03/07 03:19:38;;;;;;;;;;;-2.80;99.90;;;;;;5053257;28;19955;-88
2021/03/07 03:22:16;;;;;;;;;;;-2.80;99.90;;;;;;5028292;28;20358;-87
2021/03/07 03:24:45;;;;;;;;;;;-2.80;99.90;;;;;;5023502;28;19916;-87
2021/03/07 03:27:14;;;;;;;;;;;-2.90;99.90;;;;;;5039924;28;19909;-87
2021/03/07 03:29:53;;;;;;;;;;;-2.90;99.90;;;;;;5021366;28;19916;-88
2021/03/07 03:32:21;;;;;;;;;;;-2.90;99.90;;;;;;5019422;28;19984;-88
2021/03/07 03:34:52;;;;;;;;;;;-2.90;99.90;;;;;;5019008;28;19975;-87
2021/03/07 03:37:19;;;;;;;;;;;-3.00;99.90;;;;;;5018759;28;19913;-87
2021/03/07 03:39:55;;;;;;;;;;;-3.00;99.90;;;;;;5018555;28;19999;-88
2021/03/07 03:42:27;;;;;;;;;;;-3.00;99.90;;;;;;5018606;28;20396;-88
2021/03/07 03:44:57;;;;;;;;;;;-3.10;99.90;;;;;;5018253;28;19909;-88
2021/03/07 03:47:39;;;;;;;;;;;-3.10;99.90;;;;;;5036119;28;19913;-87
2021/03/07 03:50:17;;;;;;;;;;;-3.10;99.90;;;;;;5015602;28;19923;-88
2021/03/07 03:52:56;;;;;;;;;;;-3.20;99.90;;;;;;5033912;28;19910;-88
2021/03/07 03:55:26;;;;;;;;;;;-3.20;99.90;;;;;;5018268;28;19919;-87
2021/03/07 03:57:55;;;;;;;;;;;-3.20;99.90;;;;;;5015453;28;20277;-88
2021/03/07 04:00:34;;;;;;;;;;;-3.20;99.90;;;;;;5018025;28;19959;-88
2021/03/07 04:03:07;;;;;;;;;;;-3.20;99.90;;;;;;4994342;28;19953;-87
2021/03/07 04:05:43;;;;;;;;;;;-3.20;99.90;;;;;;4976067;28;19910;-87
2021/03/07 04:08:13;;;;;;;;;;;-3.20;99.90;;;;;;4974884;28;19922;-87
2021/03/07 04:10:47;;;;;;;;;;;-3.30;99.90;;;;;;4975614;28;19941;-87
2021/03/07 04:13:31;;;;;;;;;;;-3.30;99.90;;;;;;4958364;28;20367;-87
2021/03/07 04:16:03;;;;;;;;;;;-3.30;99.90;;;;;;4974026;28;19910;-87
2021/03/07 04:18:31;;;;;;;;;;;-3.30;99.90;;;;;;4974637;28;19910;-87
2021/03/07 04:21:04;;;;;;;;;;;-3.30;99.90;;;;;;4900751;29;19915;-88
2021/03/07 04:23:41;;;;;;;;;;;-3.40;99.90;;;;;;4902319;29;19927;-88
2021/03/07 04:26:14;;;;;;;;;;;-3.40;99.90;;;;;;4917195;29;19982;-87
2021/03/07 04:28:48;;;;;;;;;;;-3.40;99.90;;;;;;4898961;29;19915;-87
2021/03/07 04:31:18;;;;;;;;;;;-3.40;99.90;;;;;;4901974;29;19922;-87
2021/03/07 04:33:59;;;;;;;;;;;-3.40;99.90;;;;;;4916101;29;19973;-87
2021/03/07 04:36:31;;;;;;;;;;;-3.40;99.90;;;;;;4938797;29;19921;-88
2021/03/07 04:38:57;;;;;;;;;;;-3.50;99.90;;;;;;4939650;29;20003;-88
2021/03/07 04:41:28;;;;;;;;;;;-3.50;99.90;;;;;;4938497;29;19918;-88
2021/03/07 04:44:01;;;;;;;;;;;-3.50;99.90;;;;;;4939847;29;19917;-87
2021/03/07 04:46:32;;;;;;;;;;;-3.50;99.90;;;;;;4992823;28;19909;-87
2021/03/07 04:49:04;;;;;;;;;;;-3.50;99.90;;;;;;4999040;28;19975;-87
2021/03/07 04:51:30;;;;;;;;;;;-3.60;99.90;;;;;;4999449;28;19917;-87
2021/03/07 04:53:59;;;;;;;;;;;-3.60;99.90;;;;;;4998321;28;20322;-87
2021/03/07 04:56:45;;;;;;;;;;;-3.60;99.90;;;;;;4998768;28;19948;-87
2021/03/07 04:59:17;;;;;;;;;;;-3.60;99.90;;;;;;4998054;28;19910;-87
2021/03/07 05:01:54;;;;;;;;;;;-3.60;99.90;;;;;;4998604;28;19917;-87
2021/03/07 05:04:25;;;;;;;;;;;-3.70;99.90;;;;;;4996054;28;19910;-87
2021/03/07 05:07:02;;;;;;;;;;;-3.70;99.90;;;;;;4998168;28;20330;-87
2021/03/07 05:09:40;;;;;;;;;;;-3.80;99.90;;;;;;5011036;28;19960;-87
2021/03/07 05:12:14;;;;;;;;;;;-3.80;99.90;;;;;;5035326;28;20370;-87
2021/03/07 05:14:42;;;;;;;;;;;-3.80;99.90;;;;;;5035491;28;20416;-87
2021/03/07 05:17:17;;;;;;;;;;;-3.70;99.90;;;;;;5011887;28;20034;-87
2021/03/07 05:19:47;;;;;;;;;;;-3.70;99.90;;;;;;5017950;28;19910;-86
2021/03/07 05:22:19;;;;;;;;;;;-3.60;99.90;;;;;;5017997;28;19916;-86
2021/03/07 05:24:50;;;;;;;;;;;-3.50;99.90;;;;;;5018477;28;20071;-87
2021/03/07 05:27:26;;;;;;;;;;;-3.40;99.90;;;;;;5034913;28;19909;-87
2021/03/07 05:29:55;;;;;;;;;;;-3.30;99.90;;;;;;5016832;28;19913;-86
2021/03/07 05:32:26;;;;;;;;;;;-3.10;99.90;;;;;;5017480;28;19916;-87
2021/03/07 05:34:57;;;;;;;;;;;-3.00;99.90;;;;;;5037943;28;19974;-87
2021/03/07 05:37:28;;;;;;;;;;;-2.90;99.90;;;;;;5021943;28;19909;-87
2021/03/07 05:40:01;;;;;;;;;;;-2.80;99.90;;;;;;5040071;28;19909;-88
2021/03/07 05:42:32;;;;;;;;;;;-2.70;99.90;;;;;;5018501;28;20354;-87
2021/03/07 05:45:10;;;;;;;;;;;-2.60;99.90;;;;;;5021538;28;19909;-86
2021/03/07 05:47:38;;;;;;;;;;;-2.50;99.90;;;;;;5021466;28;19913;-86
2021/03/07 05:50:10;;;;;;;;;;;-2.40;99.90;;;;;;5020819;28;19920;-86
2021/03/07 05:52:41;;;;;;;;;;;-2.30;99.90;;;;;;5038930;28;19959;-86
2021/03/07 05:55:12;;;;;;;;;;;-2.20;99.90;;;;;;5021265;28;19913;-87
2021/03/07 05:57:42;;;;;;;;;;;-2.10;99.90;;;;;;5021602;28;19913;-87
2021/03/07 06:00:11;;;;;;;;;;;-2.00;99.90;;;;;;5018270;28;20031;-87
2021/03/07 06:02:42;;;;;;;;;;;-1.90;99.90;;;;;;5018919;28;20350;-86
2021/03/07 06:05:15;;;;;;;;;;;-1.90;99.90;;;;;;5017103;28;20425;-87
2021/03/07 06:07:46;;;;;;;;;;;-1.80;99.90;;;;;;5037867;28;20003;-87
2021/03/07 06:10:23;;;;;;;;;;;-1.70;99.90;;;;;;5020962;28;19916;-87
2021/03/07 06:13:00;;;;;;;;;;;-1.60;99.90;;;;;;5038768;28;19913;-88
2021/03/07 06:15:26;;;;;;;;;;;-1.60;99.90;;;;;;5010313;28;20368;-88
2021/03/07 06:17:55;;;;;;;;;;;-1.50;99.90;;;;;;5019666;28;19909;-88
2021/03/07 06:20:30;;;;;;;;;;;-1.40;99.90;;;;;;5037716;28;19909;-88
2021/03/07 06:23:02;;;;;;;;;;;-1.30;99.90;;;;;;5020228;28;20362;-88
2021/03/07 06:25:43;;;;;;;;;;;-1.20;99.90;;;;;;5038607;28;19921;-88
2021/03/07 06:28:30;;;;;;;;;;;-1.10;99.90;;;;;;5019069;28;20366;-87
2021/03/07 06:30:58;;;;;;;;;;;-1.10;99.90;;;;;;5019843;28;19960;-88
2021/03/07 06:33:55;;;;;;;;;;;-1.00;99.90;;;;;;5020615;28;19909;-87
2021/03/07 06:36:22;;;;;;;;;;;-1.00;99.90;;;;;;5020789;28;19917;-89
2021/03/07 06:38:52;;;;;;;;;;;-0.80;99.90;;;;;;5020149;28;19913;-88
2021/03/07 06:41:22;;;;;;;;;;;-0.80;99.90;;;;;;5020408;28;20362;-88
2021/03/07 06:43:48;;;;;;;;;;;-0.70;99.90;;;;;;5037059;28;20302;-87
2021/03/07 06:46:31;;;;;;;;;;;-0.60;99.90;;;;;;4992888;28;19910;-88
2021/03/07 06:49:06;;;;;;;;;;;-0.40;99.90;;;;;;4996409;28;19957;-88
2021/03/07 06:51:37;;;;;;;;;;;-0.30;99.90;;;;;;4996255;28;20449;-89
2021/03/07 06:54:20;;;;;;;;;;;-0.20;99.90;;;;;;4996618;28;20359;-89
2021/03/07 06:56:52;;;;;;;;;;;-0.20;99.90;;;;;;4996461;28;19926;-88
2021/03/07 06:59:29;;;;;;;;;;;0.00;99.90;;;;;;4995784;28;19913;-89
2021/03/07 07:02:03;;;;;;;;;;;0.00;99.90;;;;;;4996060;28;20379;-88
2021/03/07 07:04:39;;;;;;;;;;;0.20;99.90;;;;;;4996344;28;19910;-88
2021/03/07 07:07:17;;;;;;;;;;;0.30;99.90;;;;;;4993112;28;19922;-89
2021/03/07 07:10:10;;;;;;;;;;;0.50;99.90;;;;;;4980176;28;20027;-89
2021/03/07 07:12:41;;;;;;;;;;;0.50;99.90;;;;;;4995742;28;19913;-89
2021/03/07 07:15:11;;;;;;;;;;;0.60;99.90;;;;;;4978961;28;19914;-89
2021/03/07 07:17:46;;;;;;;;;;;0.70;99.90;;;;;;5006741;28;19915;-89
2021/03/07 07:20:18;;;;;;;;;;;0.70;99.90;;;;;;5019854;28;20000;-89
2021/03/07 07:23:02;;;;;;;;;;;0.90;99.90;;;;;;5037085;28;19916;-90
2021/03/07 07:25:37;;;;;;;;;;;0.90;99.90;;;;;;5015267;28;19967;-90
2021/03/07 07:28:07;;;;;;;;;;;1.00;99.90;;;;;;5020082;28;19977;-89
2021/03/07 07:30:39;;;;;;;;;;;1.20;99.90;;;;;;5019769;28;19913;-89
2021/03/07 07:33:10;;;;;;;;;;;1.30;99.90;;;;;;5016770;28;19913;-87
2021/03/07 07:35:47;;;;;;;;;;;1.40;99.90;;;;;;5019085;28;20000;-88
2021/03/07 07:38:20;;;;;;;;;;;1.60;99.90;;;;;;5019099;28;20000;-89
2021/03/07 07:41:06;;;;;;;;;;;1.80;99.90;;;;;;5018583;28;19909;-88
2021/03/07 07:43:53;;;;;;;;;;;1.80;99.90;;;;;;5036558;28;19909;-89
2021/03/07 07:46:31;;;;;;;;;;;2.00;99.90;;;;;;5019765;28;19948;-89
2021/03/07 07:49:19;;;;;;;;;;;2.20;99.90;;;;;;5019252;28;19916;-89
2021/03/07 07:51:57;;;;;;;;;;;2.40;99.90;;;;;;5016794;28;19952;-89
2021/03/07 07:54:41;;;;;;;;;;;2.60;99.90;;;;;;5018392;28;19999;-89
2021/03/07 07:57:27;;;;;;;;;;;2.80;99.90;;;;;;5017939;28;19909;-88
2021/03/07 07:59:56;;;;;;;;;;;2.90;99.90;;;;;;5025491;28;19908;-88
2021/03/07 08:02:46;;;;;;;;;;;3.10;99.90;;;;;;5017381;28;19992;-88
2021/03/07 08:05:25;;;;;;;;;;;3.40;99.90;;;;;;4975132;28;19949;-88
2021/03/07 08:08:01;;;;;;;;;;;3.60;99.90;;;;;;4986115;28;19973;-88
2021/03/07 08:10:44;;;;;;;;;;;3.80;99.90;;;;;;5001885;28;19913;-88
2021/03/07 08:13:28;;;;;;;;;;;4.00;99.90;;;;;;4999585;28;19917;-88
2021/03/07 08:15:58;;;;;;;;;;;4.20;99.90;;;;;;4996821;28;19914;-88
2021/03/07 08:18:44;;;;;;;;;;;4.40;99.90;;;;;;4996531;28;19913;-88
2021/03/07 08:21:10;;;;;;;;;;;4.40;99.90;;;;;;4994720;28;19932;-88
2021/03/07 08:24:02;;;;;;;;;;;4.50;99.90;;;;;;5016837;28;19909;-88
2021/03/07 08:26:48;;;;;;;;;;;4.50;99.90;;;;;;4996950;28;19913;-88
2021/03/07 08:29:33;;;;;;;;;;;4.70;99.90;;;;;;4991610;28;20021;-87
2021/03/07 08:32:19;;;;;;;;;;;4.80;99.90;;;;;;5021510;28;19921;-86
2021/03/07 08:34:50;;;;;;;;;;;5.00;99.90;;;;;;5004191;28;19932;-89
2021/03/07 08:37:26;;;;;;;;;;;5.20;99.90;;;;;;5034284;28;19917;-88
2021/03/07 08:40:11;;;;;;;;;;;5.40;99.90;;;;;;5038208;28;19939;-89
2021/03/07 08:42:40;;;;;;;;;;;6.30;99.90;;;;;;5056050;28;19976;-88
2021/03/07 08:45:21;;;;;;;;;;;6.70;99.90;;;;;;5038376;28;19909;-89
2021/03/07 08:47:58;;;;;;;;;;;6.70;99.90;;;;;;5040073;28;19909;-88
2021/03/07 08:50:27;;;;;;;;;;;6.60;99.90;;;;;;5016688;28;19914;-89
2021/03/07 08:52:56;;;;;;;;;;;6.50;99.30;;;;;;5000266;28;19914;-88
2021/03/07 08:55:30;;;;;;;;;;;6.50;98.60;;;;;;5017535;28;19910;-89
2021/03/07 08:58:02;;;;;;;;;;;6.50;96.10;;;;;;4999380;28;19948;-88
2021/03/07 09:00:27;;;;;;;;;;;6.50;95.80;;;;;;4996700;28;19920;-88
2021/03/07 09:03:19;;;;;;;;;;;6.60;94.60;;;;;;5016303;28;19913;-89
2021/03/07 09:05:53;;;;;;;;;;;6.70;92.90;;;;;;4999431;28;19913;-89
2021/03/07 09:08:30;;;;;;;;;;;7.60;91.70;;;;;;4999090;28;19925;-89
2021/03/07 09:10:59;;;;;;;;;;;8.20;88.40;;;;;;5019998;28;19925;-90
2021/03/07 09:13:30;;;;;;;;;;;8.30;86.50;;;;;;5006262;28;19914;-89
2021/03/07 09:16:04;;;;;;;;;;;8.20;85.40;;;;;;5003920;28;19909;-89
2021/03/07 09:18:39;;;;;;;;;;;8.10;83.60;;;;;;5002137;28;19925;-89
2021/03/07 09:21:09;;;;;;;;;;;7.80;81.40;;;;;;5004178;28;20004;-89
2021/03/07 09:23:56;;;;;;;;;;;7.60;80.80;;;;;;5007368;28;19969;-89
2021/03/07 09:26:22;;;;;;;;;;;7.60;80.30;;;;;;5015523;28;19921;-89
2021/03/07 09:29:01;;;;;;;;;;;7.70;80.20;;;;;;5053450;28;19936;-89
2021/03/07 09:31:42;;;;;;;;;;;8.10;79.00;;;;;;5053028;28;19921;-90
2021/03/07 09:34:14;;;;;;;;;;;9.00;74.10;;;;;;5035485;28;19913;-89
2021/03/07 09:36:43;;;;;;;;;;;9.40;67.30;;;;;;5024833;28;19913;-89
2021/03/07 09:39:12;;;;;;;;;;;9.70;67.00;;;;;;5049686;28;19913;-89
2021/03/07 09:41:41;;;;;;;;;;;9.90;65.30;;;;;;5026326;28;20416;-88
2021/03/07 09:44:15;;;;;;;;;;;9.90;63.00;;;;;;5028860;28;19916;-89
2021/03/07 09:46:58;;;;;;;;;;;10.00;61.60;;;;;;5033498;28;19919;-91
2021/03/07 09:49:28;;;;;;;;;;;9.90;61.60;;;;;;5022820;28;20011;-90
2021/03/07 09:52:00;;;;;;;;;;;9.80;61.30;;;;;;5022992;28;20294;-88
2021/03/07 09:54:26;;;;;;;;;;;9.80;60.00;;;;;;5022927;28;19948;-88
2021/03/07 09:56:55;;;;;;;;;;;9.80;59.60;;;;;;4984350;28;19914;-90
2021/03/07 09:59:30;;;;;;;;;;;9.90;58.40;;;;;;4980433;28;19981;-89
2021/03/07 10:02:06;;;;;;;;;;;9.80;57.60;;;;;;4983206;28;20387;-89
2021/03/07 10:05:03;;;;;;;;;;;9.90;57.60;;;;;;4982088;28;20001;-87
2021/03/07 10:07:33;;;;;;;;;;;10.10;56.30;;;;;;4997943;28;19926;-88
2021/03/07 10:10:16;;;;;;;;;;;10.20;55.90;;;;;;4981971;28;19977;-89
2021/03/07 10:12:50;;;;;;;;;;;10.70;56.80;;;;;;4982139;28;19910;-89
2021/03/07 10:15:26;;;;;;;;;;;11.10;54.90;;;;;;4982149;28;19949;-89
2021/03/07 10:17:57;;;;;;;;;;;11.20;53.10;;;;;;4981311;28;19910;-88
2021/03/07 10:20:35;;;;;;;;;;;11.00;53.00;;;;;;4979669;28;20402;-89
2021/03/07 10:23:00;;;;;;;;;;;10.90;53.20;;;;;;4979336;28;20303;-88
2021/03/07 10:25:33;;;;;;;;;;;10.80;53.20;;;;;;4977232;28;19949;-89
2021/03/07 10:28:11;;;;;;;;;;;11.00;53.50;;;;;;5003881;28;20370;-89
2021/03/07 10:30:44;;;;;;;;;;;11.30;53.40;;;;;;5021857;28;19913;-88
2021/03/07 10:33:19;;;;;;;;;;;11.70;52.50;;;;;;5033908;28;19947;-88
2021/03/07 10:35:58;;;;;;;;;;;12.60;50.80;;;;;;5020274;28;19909;-88
2021/03/07 10:38:24;;;;;;;;;;;13.70;48.80;;;;;;5037843;28;19963;-88
2021/03/07 10:40:51;;;;;;;;;;;14.90;46.80;;;;;;5017597;28;19925;-89
2021/03/07 10:43:19;;;;;;;;;;;15.90;43.50;;;;;;5015052;28;19909;-88
2021/03/07 10:45:51;;;;;;;;;;;16.80;42.20;;;;;;5020801;28;20033;-90
2021/03/07 10:48:31;;;;;;;;;;;17.50;40.70;;;;;;5038855;28;19916;-89
2021/03/07 10:51:03;;;;;;;;;;;18.20;39.80;;;;;;5018190;28;20008;-90
2021/03/07 10:53:28;;;;;;;;;;;18.90;39.60;;;;;;5019215;28;19956;-90
2021/03/07 10:56:00;;;;;;;;;;;19.20;37.70;;;;;;5014552;28;19909;-89
2021/03/07 10:58:29;;;;;;;;;;;19.40;36.00;;;;;;5015547;28;19909;-89
2021/03/07 11:01:02;;;;;;;;;;;19.40;35.90;;;;;;5013417;28;20369;-90
2021/03/07 11:03:50;;;;;;;;;;;18.90;35.90;;;;;;5035312;28;19913;-91
2021/03/07 11:06:20;;;;;;;;;;;18.50;36.00;;;;;;5019413;28;20418;-88
2021/03/07 11:08:58;;;;;;;;;;;18.90;35.10;;;;;;5035799;28;19971;-88
2021/03/07 11:11:39;;;;;;;;;;;19.40;34.60;;;;;;5037995;28;19924;-89
2021/03/07 11:14:26;;;;;;;;;;;18.80;35.80;;;;;;5035763;28;19909;-89
2021/03/07 11:17:00;;;;;;;;;;;17.40;36.50;;;;;;5019889;28;20370;-88
2021/03/07 11:19:31;;;;;;;;;;;15.70;38.00;;;;;;5019718;28;19943;-90
2021/03/07 11:22:01;;;;;;;;;;;14.40;40.50;;;;;;5016489;28;19913;-87
2021/03/07 11:24:30;;;;;;;;;;;13.60;41.90;;;;;;5019598;28;20312;-89
2021/03/07 11:27:04;;;;;;;;;;;13.30;43.60;;;;;;4940847;29;20372;-88
2021/03/07 11:29:33;;;;;;;;;;;12.90;43.60;;;;;;4940719;29;19910;-88
2021/03/07 11:31:59;;;;;;;;;;;12.60;43.60;;;;;;4940456;29;19985;-90
2021/03/07 11:34:25;;;;;;;;;;;12.10;44.10;;;;;;4941593;29;19949;-89
2021/03/07 11:37:02;;;;;;;;;;;11.80;45.30;;;;;;4956248;28;19917;-89
2021/03/07 11:39:38;;;;;;;;;;;11.40;45.90;;;;;;4939555;29;20359;-89
2021/03/07 11:42:09;;;;;;;;;;;11.10;46.50;;;;;;4938280;29;19983;-88
2021/03/07 11:44:38;;;;;;;;;;;10.80;46.60;;;;;;4936310;29;20006;-89
2021/03/07 11:47:05;;;;;;;;;;;10.50;46.30;;;;;;4936226;29;19955;-89
2021/03/07 11:49:32;;;;;;;;;;;10.50;47.50;;;;;;4883157;29;19919;-90
2021/03/07 11:52:06;;;;;;;;;;;11.90;46.80;;;;;;4885459;29;19931;-89
2021/03/07 11:54:54;;;;;;;;;;;14.10;44.60;;;;;;4899265;29;19971;-90
2021/03/07 11:57:31;;;;;;;;;;;15.90;41.00;;;;;;4877252;29;19958;-88
2021/03/07 12:00:15;;;;;;;;;;;16.90;38.80;;;;;;4902537;29;20415;-89
2021/03/07 12:02:56;;;;;;;;;;;16.10;38.10;;;;;;4901586;29;19911;-89
2021/03/07 12:05:27;;;;;;;;;;;14.70;40.10;;;;;;4918482;29;20387;-88
2021/03/07 12:07:56;;;;;;;;;;;13.50;42.40;;;;;;4900895;29;19993;-89
2021/03/07 12:10:44;;;;;;;;;;;12.90;43.60;;;;;;4865184;29;20011;-88
2021/03/07 12:13:10;;;;;;;;;;;13.80;43.80;;;;;;4881003;29;19912;-88
2021/03/07 12:15:45;;;;;;;;;;;15.30;41.60;;;;;;4865131;29;20018;-86
2021/03/07 12:18:16;;;;;;;;;;;15.50;40.00;;;;;;4865176;29;19912;-89
2021/03/07 12:20:45;;;;;;;;;;;14.50;40.50;;;;;;4866231;29;19951;-86
2021/03/07 12:23:32;;;;;;;;;;;13.40;42.70;;;;;;4899818;29;19927;-90
2021/03/07 12:26:04;;;;;;;;;;;12.50;44.40;;;;;;4906714;29;19970;-89
2021/03/07 12:28:53;;;;;;;;;;;12.00;45.00;;;;;;4958667;29;20053;-85
2021/03/07 12:31:42;;;;;;;;;;;11.90;45.90;;;;;;4960226;29;20510;-90
2021/03/07 12:34:14;;;;;;;;;;;12.10;45.80;;;;;;4945668;29;19921;-90
2021/03/07 12:36:57;;;;;;;;;;;12.20;45.40;;;;;;4957498;28;19957;-89
2021/03/07 12:39:36;;;;;;;;;;;12.80;45.30;;;;;;4946857;29;19926;-90
2021/03/07 12:42:02;;;;;;;;;;;12.90;44.40;;;;;;4955390;28;19933;-88
2021/03/07 12:44:33;;;;;;;;;;;12.30;44.60;;;;;;4958088;29;19962;-88
2021/03/07 12:47:11;;;;;;;;;;;11.70;46.60;;;;;;4866865;29;19976;-88
2021/03/07 12:49:49;;;;;;;;;;;11.10;47.80;;;;;;4860823;29;19912;-86
2021/03/07 12:52:20;;;;;;;;;;;10.70;48.60;;;;;;4866135;29;20011;-88
2021/03/07 12:54:47;;;;;;;;;;;10.30;48.60;;;;;;4881409;29;19971;-89
2021/03/07 12:57:19;;;;;;;;;;;10.00;49.20;;;;;;4881038;29;19912;-89
2021/03/07 12:59:52;;;;;;;;;;;9.80;49.30;;;;;;4885228;29;20014;-90
2021/03/07 13:02:24;;;;;;;;;;;9.70;49.80;;;;;;4929444;29;19919;-90
2021/03/07 13:05:02;;;;;;;;;;;9.70;49.80;;;;;;4924109;29;20471;-86
2021/03/07 13:07:41;;;;;;;;;;;9.60;50.00;;;;;;4926657;29;19943;-87
2021/03/07 13:10:19;;;;;;;;;;;9.50;50.50;;;;;;4938329;29;19926;-87
2021/03/07 13:12:56;;;;;;;;;;;9.50;51.20;;;;;;4885878;29;19919;-88
2021/03/07 13:15:45;;;;;;;;;;;9.40;51.20;;;;;;4902402;29;19919;-88
2021/03/07 13:18:18;;;;;;;;;;;9.30;52.30;;;;;;4950089;28;19911;-87
2021/03/07 13:20:57;;;;;;;;;;;9.10;52.90;;;;;;4962163;28;19961;-87
2021/03/07 13:23:33;;;;;;;;;;;9.00;53.60;;;;;;4962784;28;19985;-89
2021/03/07 13:26:07;;;;;;;;;;;8.80;54.00;;;;;;4962068;28;20012;-88
2021/03/07 13:28:38;;;;;;;;;;;8.70;54.90;;;;;;4962553;28;19910;-87
2021/03/07 13:31:10;;;;;;;;;;;8.60;55.10;;;;;;4959440;29;19945;-87
2021/03/07 13:33:39;;;;;;;;;;;8.50;55.40;;;;;;4940781;29;19925;-88
2021/03/07 13:36:15;;;;;;;;;;;8.40;55.80;;;;;;4939515;29;19915;-86
2021/03/07 13:38:57;;;;;;;;;;;8.40;56.20;;;;;;4956514;29;19988;-88
2021/03/07 13:41:31;;;;;;;;;;;8.30;56.30;;;;;;4939777;29;20055;-88
2021/03/07 13:43:59;;;;;;;;;;;8.40;56.80;;;;;;4939068;29;19917;-88
2021/03/07 13:46:30;;;;;;;;;;;8.40;56.90;;;;;;4941937;29;19910;-88
2021/03/07 13:49:05;;;;;;;;;;;8.40;57.10;;;;;;4899663;29;20008;-86
2021/03/07 13:51:31;;;;;;;;;;;8.40;57.50;;;;;;4920113;29;19975;-88
2021/03/07 13:53:57;;;;;;;;;;;8.40;57.70;;;;;;4920189;29;19911;-86
2021/03/07 13:56:31;;;;;;;;;;;8.40;57.00;;;;;;4913473;29;19918;-88
2021/03/07 13:59:02;;;;;;;;;;;8.50;56.50;;;;;;4901644;29;19958;-87
2021/03/07 14:01:42;;;;;;;;;;;8.50;55.90;;;;;;4927138;29;19910;-88
2021/03/07 14:04:11;;;;;;;;;;;8.30;56.10;;;;;;4942178;29;19977;-87
2021/03/07 14:06:41;;;;;;;;;;;8.20;56.40;;;;;;4942171;29;20284;-89
2021/03/07 14:09:07;;;;;;;;;;;8.10;56.00;;;;;;4942103;28;19951;-89
2021/03/07 14:11:38;;;;;;;;;;;8.10;55.80;;;;;;4927040;29;20309;-88
2021/03/07 14:14:14;;;;;;;;;;;8.00;55.70;;;;;;4882694;29;19918;-86
2021/03/07 14:16:39;;;;;;;;;;;8.00;55.40;;;;;;4881748;29;19950;-88
2021/03/07 14:19:14;;;;;;;;;;;8.00;55.00;;;;;;4866333;29;20263;-89
2021/03/07 14:21:48;;;;;;;;;;;8.40;55.40;;;;;;4882934;29;20258;-88
2021/03/07 14:24:27;;;;;;;;;;;;;;;;;;;;;
2021/03/07 14:27:03;;;;;;;;;;;10.80;51.30;;;;;;4883901;29;20517;-87
2021/03/07 14:29:38;;;;;;;;;;;11.40;49.20;;;;;;4881061;29;19919;-88
2021/03/07 14:32:34;;;;;;;;;;;11.70;47.90;;;;;;4881374;29;20394;-88
2021/03/07 14:35:02;;;;;;;;;;;12.20;47.50;;;;;;4880622;29;19912;-87
2021/03/07 14:37:27;;;;;;;;;;;12.90;45.30;;;;;;4876451;29;19919;-89
2021/03/07 14:39:55;;;;;;;;;;;13.10;45.20;;;;;;4865501;29;19912;-87
2021/03/07 14:42:21;;;;;;;;;;;13.50;43.60;;;;;;4880346;29;19912;-87
2021/03/07 14:44:52;;;;;;;;;;;13.70;45.20;;;;;;4880495;29;19922;-88
2021/03/07 14:47:28;;;;;;;;;;;14.20;44.70;;;;;;4889009;29;20377;-88
2021/03/07 14:49:57;;;;;;;;;;;14.50;45.60;;;;;;4896987;29;19911;-88
2021/03/07 14:52:26;;;;;;;;;;;14.50;42.90;;;;;;4977052;28;19918;-89
2021/03/07 14:55:00;;;;;;;;;;;14.30;43.30;;;;;;5012557;28;19910;-89
2021/03/07 14:57:30;;;;;;;;;;;14.20;42.90;;;;;;4991227;28;19910;-88
2021/03/07 15:00:27;;;;;;;;;;;14.10;42.90;;;;;;5016375;28;19910;-88
2021/03/07 15:03:21;;;;;;;;;;;13.90;43.00;;;;;;5016359;28;20008;-88